Time;durP1;ratioP1;P1;durP2;ratioP2;P2;SDS_P1;SDS_P2;PMS_P1;PMS_P2;Temp;Humidity;BMP_temperature;BMP_pressure;BME280_temperature;BME280_humidity;BME280_pressure;Samples;Min_cycle;Max_cycle;Signal;HPM_P1;HPM_P2
2021/10/06 00:00:50;;;;;;;4.47;1.10;;;;;;;6.77;100.00;93719.47;5072828;28;20659;-76
2021/10/06 00:03:18;;;;;;;3.77;0.93;;;;;;;6.83;100.00;93713.59;5072890;28;20199;-77
2021/10/06 00:05:44;;;;;;;4.03;1.23;;;;;;;6.98;100.00;93716.19;5076899;28;20260;-76
2021/10/06 00:08:11;;;;;;;5.83;0.90;;;;;;;6.80;100.00;93715.72;5076899;28;20292;-76
2021/10/06 00:10:37;;;;;;;2.67;1.07;;;;;;;6.95;100.00;93720.94;5076575;28;20202;-76
2021/10/06 00:13:04;;;;;;;1.87;0.80;;;;;;;7.23;100.00;93713.28;5074813;28;20198;-76
2021/10/06 00:15:31;;;;;;;1.10;0.77;;;;;;;7.33;100.00;93711.22;5077032;28;20260;-77
2021/10/06 00:17:57;;;;;;;0.70;0.67;;;;;;;7.41;100.00;93710.28;5077023;28;20244;-76
2021/10/06 00:20:25;;;;;;;0.93;0.70;;;;;;;7.44;100.00;93714.31;5076782;28;20612;-76
2021/10/06 00:22:51;;;;;;;2.87;0.93;;;;;;;7.36;100.00;93723.03;5063970;28;20643;-76
2021/10/06 00:25:18;;;;;;;2.43;0.83;;;;;;;7.55;100.00;93719.84;5059255;28;20551;-76
2021/10/06 00:27:44;;;;;;;3.50;0.80;;;;;;;7.49;100.00;93727.56;5056670;28;20284;-76
2021/10/06 00:30:11;;;;;;;3.67;1.00;;;;;;;7.47;100.00;93734.75;5056608;28;20298;-76
2021/10/06 00:32:38;;;;;;;1.77;0.70;;;;;;;7.65;100.00;93729.16;5060669;28;20210;-76
2021/10/06 00:35:05;;;;;;;2.10;0.80;;;;;;;7.43;100.00;93739.50;5076446;28;20198;-76
2021/10/06 00:37:33;;;;;;;2.40;0.60;;;;;;;7.30;100.00;93745.34;5076627;28;20203;-76
2021/10/06 00:39:59;;;;;;;3.43;0.83;;;;;;;7.25;100.00;93739.09;5076505;28;20280;-76
2021/10/06 00:42:26;;;;;;;2.20;0.50;;;;;;;7.12;100.00;93748.28;5076460;28;20203;-76
2021/10/06 00:44:52;;;;;;;1.00;0.60;;;;;;;7.10;100.00;93749.47;5076444;28;20199;-76
2021/10/06 00:47:19;;;;;;;2.20;0.63;;;;;;;7.13;100.00;93751.72;5076272;28;20199;-76
2021/10/06 00:49:45;;;;;;;7.30;0.80;;;;;;;7.22;100.00;93759.22;5075922;28;20628;-76
2021/10/06 00:52:13;;;;;;;2.77;0.70;;;;;;;7.41;100.00;93763.06;5076250;28;20203;-76
2021/10/06 00:54:40;;;;;;;2.97;0.83;;;;;;;7.47;100.00;93763.31;5076186;28;20209;-76
2021/10/06 00:57:07;;;;;;;1.50;0.68;;;;;;;7.54;100.00;93756.41;5075559;28;20438;-76
2021/10/06 00:59:34;;;;;;;2.80;0.73;;;;;;;7.50;100.00;93761.16;5076005;28;20289;-76
2021/10/06 01:02:00;;;;;;;1.90;0.60;;;;;;;7.37;100.00;93761.00;5076032;28;20225;-76
2021/10/06 01:04:27;;;;;;;4.00;0.70;;;;;;;7.19;100.00;93753.56;5075817;28;20203;-77
2021/10/06 01:06:54;;;;;;;1.97;0.50;;;;;;;6.98;100.00;93754.31;5076006;28;20203;-77
2021/10/06 01:09:22;;;;;;;5.97;0.83;;;;;;;6.82;100.00;93760.47;5075870;28;20230;-76
2021/10/06 01:11:50;;;;;;;1.53;0.60;;;;;;;6.87;100.00;93763.34;5075844;28;20272;-76
2021/10/06 01:14:16;;;;;;;2.70;0.90;;;;;;;6.83;100.00;93765.47;5075750;28;20203;-77
2021/10/06 01:16:43;;;;;;;4.87;0.80;;;;;;;6.65;100.00;93758.03;5075619;28;20202;-77
2021/10/06 01:19:19;;;;;;;3.97;0.80;;;;;;;6.56;100.00;93753.09;5075887;28;20604;-76
2021/10/06 01:21:48;;;;;;;3.90;0.80;;;;;;;6.35;100.00;93756.38;5075629;28;20334;-76
2021/10/06 01:24:14;;;;;;;1.60;0.87;;;;;;;6.20;100.00;93757.13;5075789;28;20198;-76
2021/10/06 01:26:41;;;;;;;4.07;0.80;;;;;;;6.16;100.00;93760.22;5075553;28;20203;-76
2021/10/06 01:29:08;;;;;;;5.20;0.83;;;;;;;6.08;100.00;93766.28;5075426;28;20283;-76
2021/10/06 01:31:34;;;;;;;2.87;1.00;;;;;;;5.82;100.00;93764.00;5075486;28;20272;-76
2021/10/06 01:34:01;;;;;;;3.20;0.80;;;;;;;5.70;100.00;93763.59;5075600;28;20202;-76
2021/10/06 01:36:27;;;;;;;4.37;0.80;;;;;;;5.63;100.00;93765.22;5075612;28;20253;-77
2021/10/06 01:38:55;;;;;;;3.37;0.80;;;;;;;5.58;100.00;93776.13;5075449;28;20249;-76
2021/10/06 01:41:21;;;;;;;3.07;1.03;;;;;;;5.45;100.00;93781.84;5075349;28;20198;-76
2021/10/06 01:43:48;;;;;;;2.70;0.90;;;;;;;5.46;100.00;93778.28;5075124;28;20252;-76
2021/10/06 01:46:17;;;;;;;3.27;1.00;;;;;;;5.32;100.00;93781.56;5075598;28;20260;-76
2021/10/06 01:48:43;;;;;;;4.43;0.77;;;;;;;5.32;100.00;93776.38;5075172;28;20292;-76
2021/10/06 01:51:10;;;;;;;3.27;1.07;;;;;;;5.33;100.00;93784.00;5075207;28;20195;-76
2021/10/06 01:53:37;;;;;;;3.70;1.00;;;;;;;5.24;100.00;93781.59;5075104;28;20207;-77
2021/10/06 01:56:05;;;;;;;0.93;0.77;;;;;;;5.18;100.00;93783.88;5075154;28;20207;-77
2021/10/06 01:58:32;;;;;;;1.60;0.80;;;;;;;5.18;100.00;93783.88;5074939;28;20199;-77
2021/10/06 02:00:58;;;;;;;8.20;0.93;;;;;;;5.25;100.00;93790.97;5075072;28;20256;-77
2021/10/06 02:03:25;;;;;;;4.23;1.00;;;;;;;5.26;100.00;93783.06;5075036;28;20199;-76
2021/10/06 02:05:51;;;;;;;1.73;0.80;;;;;;;5.23;100.00;93777.38;5074788;28;20722;-76
2021/10/06 02:08:18;;;;;;;8.67;1.00;;;;;;;5.15;100.00;93776.44;5074894;28;20198;-76
2021/10/06 02:10:45;;;;;;;2.57;1.00;;;;;;;5.22;100.00;93793.91;5074601;28;20276;-76
2021/10/06 02:13:14;;;;;;;2.90;1.30;;;;;;;5.46;100.00;93791.22;5073680;28;20203;-76
2021/10/06 02:15:40;;;;;;;4.63;1.20;;;;;;;5.52;100.00;93790.53;5074758;28;20256;-76
2021/10/06 02:18:06;;;;;;;4.33;1.00;;;;;;;5.46;100.00;93793.81;5074794;28;20256;-76
2021/10/06 02:20:33;;;;;;;4.40;1.07;;;;;;;5.39;100.00;93790.25;5074539;28;20272;-77
2021/10/06 02:23:00;;;;;;;1.27;1.03;;;;;;;5.34;100.00;93784.78;5074388;28;20264;-77
2021/10/06 02:25:26;;;;;;;2.93;1.07;;;;;;;5.23;100.00;93791.16;5074396;28;20194;-77
2021/10/06 02:27:53;;;;;;;3.30;1.20;;;;;;;5.18;100.00;93786.47;5074035;28;20207;-77
2021/10/06 02:30:21;;;;;;;3.33;1.10;;;;;;;5.15;100.00;93786.00;5074454;28;20248;-77
2021/10/06 02:32:48;;;;;;;2.97;1.00;;;;;;;5.19;100.00;93782.88;5074432;28;20194;-76
2021/10/06 02:35:14;;;;;;;6.30;0.87;;;;;;;5.05;100.00;93781.00;5074357;28;20206;-76
2021/10/06 02:37:41;;;;;;;1.93;0.93;;;;;;;4.86;100.00;93779.59;5074254;28;20600;-76
2021/10/06 02:40:11;;;;;;;3.50;0.90;;;;;;;4.74;100.00;93779.13;5074218;28;20279;-77
2021/10/06 02:42:39;;;;;;;3.57;1.00;;;;;;;4.74;100.00;93786.88;5074428;28;20202;-77
2021/10/06 02:45:07;;;;;;;2.97;1.00;;;;;;;4.62;100.00;93793.38;5074209;28;20248;-76
2021/10/06 02:47:35;;;;;;;3.83;1.10;;;;;;;4.61;100.00;93778.81;5074079;28;20195;-76
2021/10/06 02:50:02;;;;;;;6.27;1.10;;;;;;;4.66;100.00;93781.72;5074046;28;20677;-77
2021/10/06 02:52:28;;;;;;;6.17;1.27;;;;;;;4.72;100.00;93778.50;5073879;28;20206;-77
2021/10/06 02:54:55;;;;;;;2.97;0.93;;;;;;;4.66;100.00;93786.91;5073736;28;20203;-76
2021/10/06 02:57:21;;;;;;;4.93;1.30;;;;;;;4.76;100.00;93778.97;5074015;28;20253;-76
2021/10/06 02:59:47;;;;;;;2.00;1.10;;;;;;;4.69;100.00;93781.41;5073916;28;20203;-76
2021/10/06 03:02:14;;;;;;;2.70;1.20;;;;;;;4.68;100.00;93784.97;5073661;28;20195;-76
2021/10/06 03:04:42;;;;;;;2.58;1.10;;;;;;;4.59;100.00;93781.56;5073338;28;20499;-76
2021/10/06 03:07:08;;;;;;;8.87;1.20;;;;;;;4.75;100.00;93785.94;5073635;28;20244;-76
2021/10/06 03:09:35;;;;;;;2.93;1.40;;;;;;;4.71;100.00;93789.00;5073696;28;20223;-76
2021/10/06 03:12:01;;;;;;;1.80;1.20;;;;;;;4.63;100.00;93788.06;5073700;28;20256;-76
2021/10/06 03:14:27;;;;;;;4.10;1.00;;;;;;;4.68;100.00;93790.16;5073581;28;20248;-76
2021/10/06 03:16:54;;;;;;;6.93;1.10;;;;;;;4.82;100.00;93789.47;5073424;28;20714;-76
2021/10/06 03:19:20;;;;;;;4.23;1.10;;;;;;;4.84;100.00;93798.84;5073531;28;20198;-76
2021/10/06 03:21:48;;;;;;;7.63;1.13;;;;;;;4.79;100.00;93800.13;5073265;28;20268;-76
2021/10/06 03:24:14;;;;;;;7.10;1.20;;;;;;;4.75;100.00;93805.81;5073359;28;20649;-76
2021/10/06 03:26:41;;;;;;;3.80;1.20;;;;;;;4.62;100.00;93816.66;5073530;28;20202;-76
2021/10/06 03:29:07;;;;;;;5.23;1.23;;;;;;;4.47;100.00;93813.13;5073264;28;20230;-76
2021/10/06 03:31:34;;;;;;;5.23;1.40;;;;;;;4.63;100.00;93818.28;5073201;28;20202;-76
2021/10/06 03:34:01;;;;;;;4.87;1.50;;;;;;;4.90;100.00;93821.47;5073138;28;20256;-76
2021/10/06 03:36:27;;;;;;;9.87;1.83;;;;;;;5.04;100.00;93815.59;5073135;28;20202;-77
2021/10/06 03:38:55;;;;;;;3.90;1.70;;;;;;;5.03;100.00;93819.19;5072365;28;20604;-77
2021/10/06 03:41:22;;;;;;;9.80;1.63;;;;;;;5.17;100.00;93820.28;5073446;28;20742;-76
2021/10/06 03:43:49;;;;;;;4.43;1.87;;;;;;;5.11;100.00;93819.16;5073252;28;20198;-77
2021/10/06 03:46:15;;;;;;;2.00;1.27;;;;;;;5.04;100.00;93825.16;5073316;28;20256;-77
2021/10/06 03:48:43;;;;;;;3.30;1.00;;;;;;;4.93;100.00;93829.72;5072917;28;20202;-76
2021/10/06 03:51:10;;;;;;;1.60;1.17;;;;;;;4.87;100.00;93829.56;5073423;28;20283;-76
2021/10/06 03:53:36;;;;;;;5.93;1.30;;;;;;;4.75;100.00;93832.47;5073196;28;20206;-77
2021/10/06 03:56:05;;;;;;;2.37;1.03;;;;;;;4.76;100.00;93828.94;5073049;28;20593;-77
2021/10/06 03:58:31;;;;;;;1.93;0.90;;;;;;;4.70;100.00;93839.91;5073170;28;20203;-76
2021/10/06 04:00:58;;;;;;;2.73;1.30;;;;;;;4.68;100.00;93839.28;5073035;28;20207;-77
2021/10/06 04:03:24;;;;;;;3.50;1.33;;;;;;;4.69;100.00;93837.50;5072868;28;20256;-77
2021/10/06 04:05:50;;;;;;;3.03;1.10;;;;;;;4.61;100.00;93836.53;5072546;28;20202;-77
2021/10/06 04:08:18;;;;;;;4.83;1.07;;;;;;;4.52;100.00;93841.88;5073034;28;20608;-77
2021/10/06 04:10:44;;;;;;;3.67;1.27;;;;;;;4.67;100.00;93842.81;5072833;28;20326;-77
2021/10/06 04:13:12;;;;;;;5.47;1.30;;;;;;;4.58;100.00;93843.78;5072872;28;20198;-76
2021/10/06 04:15:39;;;;;;;2.13;1.10;;;;;;;4.46;100.00;93853.63;5072832;28;20658;-77
2021/10/06 04:18:06;;;;;;;2.37;0.90;;;;;;;4.35;100.00;93857.38;5072740;28;20260;-76
2021/10/06 04:20:33;;;;;;;9.70;1.40;;;;;;;4.49;100.00;93855.13;5073115;28;20602;-76
2021/10/06 04:23:00;;;;;;;2.40;1.40;;;;;;;4.54;100.00;93868.34;5072724;28;20368;-76
2021/10/06 04:25:27;;;;;;;7.53;1.30;;;;;;;4.58;100.00;93874.81;5072961;28;20203;-76
2021/10/06 04:27:53;;;;;;;4.93;1.50;;;;;;;4.49;100.00;93873.22;5072840;28;20248;-76
2021/10/06 04:30:21;;;;;;;7.13;1.77;;;;;;;4.52;100.00;93884.03;5072614;28;20226;-77
2021/10/06 04:32:47;;;;;;;2.70;1.37;;;;;;;4.51;100.00;93884.19;5072555;28;20256;-76
2021/10/06 04:35:14;;;;;;;12.53;1.50;;;;;;;4.52;100.00;93883.22;5072804;28;20203;-77
2021/10/06 04:37:40;;;;;;;3.23;1.40;;;;;;;4.50;100.00;93887.75;5072846;28;20615;-76
2021/10/06 04:40:09;;;;;;;6.33;1.57;;;;;;;4.45;100.00;93889.03;5072667;28;20543;-77
2021/10/06 04:42:36;;;;;;;5.00;1.67;;;;;;;4.53;100.00;93887.41;5072713;28;20260;-77
2021/10/06 04:45:05;;;;;;;5.73;1.50;;;;;;;4.54;100.00;93886.47;5072367;28;20203;-77
2021/10/06 04:47:32;;;;;;;4.43;1.50;;;;;;;4.49;100.00;93889.50;5072872;28;20206;-76
2021/10/06 04:49:59;;;;;;;3.63;1.53;;;;;;;4.41;100.00;93880.00;5073580;28;20218;-76
2021/10/06 04:52:25;;;;;;;4.93;1.33;;;;;;;4.40;100.00;93893.88;5076273;28;20669;-76
2021/10/06 04:54:53;;;;;;;4.47;1.50;;;;;;;4.55;100.00;93883.72;5076270;28;20260;-77
2021/10/06 04:57:19;;;;;;;7.13;1.50;;;;;;;4.43;100.00;93890.97;5076241;28;20256;-76
2021/10/06 04:59:46;;;;;;;1.63;1.17;;;;;;;4.25;100.00;93888.53;5076034;28;20253;-76
2021/10/06 05:02:12;;;;;;;7.27;1.80;;;;;;;4.31;100.00;93894.81;5076191;28;20202;-76
2021/10/06 05:04:40;;;;;;;3.10;1.30;;;;;;;4.27;100.00;93893.53;5076101;28;20195;-77
2021/10/06 05:07:06;;;;;;;3.20;1.07;;;;;;;4.08;100.00;93903.19;5076100;28;20207;-76
2021/10/06 05:09:33;;;;;;;5.93;1.30;;;;;;;4.01;100.00;93902.19;5075957;28;20584;-76
2021/10/06 05:11:59;;;;;;;11.73;1.90;;;;;;;4.11;100.00;93906.41;5075890;28;20194;-77
2021/10/06 05:14:27;;;;;;;5.13;1.63;;;;;;;4.18;100.00;93913.38;5075727;28;20199;-76
2021/10/06 05:16:54;;;;;;;7.50;1.80;;;;;;;4.08;100.00;93910.13;5075975;28;20252;-78
2021/10/06 05:19:20;;;;;;;7.87;2.03;;;;;;;4.06;100.00;93907.72;5075973;28;20260;-76
2021/10/06 05:21:49;;;;;;;9.73;1.97;;;;;;;4.29;100.00;93920.00;5075607;28;20708;-77
2021/10/06 05:24:15;;;;;;;5.93;1.63;;;;;;;4.32;100.00;93924.88;5075776;28;20597;-77
2021/10/06 05:26:41;;;;;;;7.57;2.10;;;;;;;4.26;100.00;93925.50;5074805;28;20491;-77
2021/10/06 05:29:08;;;;;;;4.80;2.03;;;;;;;4.20;100.00;93923.56;5075687;28;20198;-78
2021/10/06 05:31:34;;;;;;;7.53;1.70;;;;;;;4.38;100.00;93936.34;5075563;28;20241;-77
2021/10/06 05:34:01;;;;;;;5.07;1.67;;;;;;;4.27;100.00;93937.47;5075601;28;20198;-76
2021/10/06 05:36:27;;;;;;;7.23;2.00;;;;;;;4.36;100.00;93943.44;5075506;28;20228;-76
2021/10/06 05:38:55;;;;;;;7.13;2.10;;;;;;;4.50;100.00;93937.69;5075477;28;20833;-76
2021/10/06 05:41:21;;;;;;;10.03;2.40;;;;;;;4.84;100.00;93946.28;5075373;28;20203;-78
2021/10/06 05:43:47;;;;;;;6.93;1.80;;;;;;;4.78;100.00;93951.13;5075478;28;20248;-77
2021/10/06 05:46:14;;;;;;;9.40;1.90;;;;;;;4.78;100.00;93950.28;5075374;28;20207;-77
2021/10/06 05:48:40;;;;;;;3.87;1.90;;;;;;;4.91;100.00;93945.47;5075178;28;20658;-77
2021/10/06 05:51:07;;;;;;;6.87;1.90;;;;;;;5.07;100.00;93944.66;5075150;28;20309;-77
2021/10/06 05:53:33;;;;;;;6.47;2.07;;;;;;;5.13;100.00;93945.78;5075192;28;20256;-77
2021/10/06 05:56:01;;;;;;;4.13;1.80;;;;;;;5.12;100.00;93957.91;5075088;28;20600;-77
2021/10/06 05:58:27;;;;;;;2.33;1.60;;;;;;;4.95;100.00;93951.94;5075441;28;20195;-77
2021/10/06 06:00:54;;;;;;;6.20;1.43;;;;;;;4.84;100.00;93957.41;5074694;28;20696;-77
2021/10/06 06:03:20;;;;;;;3.63;1.30;;;;;;;4.69;100.00;93952.06;5074379;28;20260;-76
2021/10/06 06:05:47;;;;;;;7.57;1.30;;;;;;;4.61;100.00;93963.22;5074882;28;20240;-77
2021/10/06 06:08:13;;;;;;;4.87;1.60;;;;;;;4.74;100.00;93959.34;5074273;28;20195;-77
2021/10/06 06:10:39;;;;;;;4.33;1.80;;;;;;;4.74;100.00;93960.16;5074627;28;20227;-77
2021/10/06 06:13:07;;;;;;;9.27;1.80;;;;;;;4.80;100.00;93954.34;5075049;28;20207;-76
2021/10/06 06:15:34;;;;;;;4.07;1.87;;;;;;;4.96;100.00;93958.75;5074947;28;20203;-76
2021/10/06 06:18:01;;;;;;;5.23;2.00;;;;;;;5.14;100.00;93960.34;5074882;28;20203;-77
2021/10/06 06:20:27;;;;;;;9.10;2.13;;;;;;;5.24;100.00;93962.75;5074611;28;20203;-76
2021/10/06 06:22:55;;;;;;;10.30;1.50;;;;;;;5.19;100.00;93958.88;5074550;28;20239;-76
2021/10/06 06:25:22;;;;;;;7.87;1.70;;;;;;;5.18;100.00;93962.44;5074430;28;20793;-76
2021/10/06 06:27:49;;;;;;;5.10;1.63;;;;;;;5.16;100.00;93958.38;5074632;28;20198;-77
2021/10/06 06:30:17;;;;;;;10.00;1.80;;;;;;;5.20;100.00;93967.47;5074448;28;20276;-76
2021/10/06 06:32:43;;;;;;;10.20;1.70;;;;;;;5.15;100.00;93967.94;5074559;28;20199;-76
2021/10/06 06:35:10;;;;;;;4.90;1.60;;;;;;;5.22;100.00;93969.88;5074421;28;20199;-76
2021/10/06 06:37:37;;;;;;;10.00;2.03;;;;;;;5.39;100.00;93974.06;5074067;28;20293;-76
2021/10/06 06:40:04;;;;;;;11.57;2.00;;;;;;;5.61;100.00;93977.75;5074429;28;20272;-76
2021/10/06 06:42:30;;;;;;;5.97;2.10;;;;;;;5.71;100.00;93972.38;5074262;28;20278;-76
2021/10/06 06:44:57;;;;;;;6.10;2.20;;;;;;;5.86;100.00;93980.28;5073853;28;20256;-77
2021/10/06 06:47:25;;;;;;;10.33;2.40;;;;;;;6.07;100.00;93990.94;5074161;28;20194;-76
2021/10/06 06:49:52;;;;;;;6.40;1.87;;;;;;;6.19;100.00;93996.56;5073794;28;20226;-76
2021/10/06 06:52:19;;;;;;;7.37;2.10;;;;;;;6.15;100.00;93995.31;5073880;28;20264;-76
2021/10/06 06:54:45;;;;;;;10.80;1.33;;;;;;;6.14;100.00;93995.47;5074137;28;20248;-77
2021/10/06 06:57:11;;;;;;;4.87;1.70;;;;;;;6.26;100.00;94007.91;5074108;28;20203;-76
2021/10/06 06:59:38;;;;;;;4.30;1.40;;;;;;;6.30;100.00;94008.38;5074010;28;20209;-76
2021/10/06 07:02:04;;;;;;;5.07;1.50;;;;;;;6.19;100.00;94004.34;5073911;28;20233;-76
2021/10/06 07:04:32;;;;;;;2.57;1.17;;;;;;;6.17;100.00;94003.72;5073678;28;20206;-77
2021/10/06 07:06:59;;;;;;;4.97;1.53;;;;;;;6.13;100.00;94009.38;5073674;28;20240;-77
2021/10/06 07:09:25;;;;;;;5.73;1.10;;;;;;;6.13;100.00;94001.63;5073559;28;20661;-77
2021/10/06 07:11:52;;;;;;;3.60;1.50;;;;;;;6.22;100.00;94008.41;5073637;28;20312;-76
2021/10/06 07:14:19;;;;;;;3.00;1.47;;;;;;;6.29;100.00;94011.94;5073496;28;20234;-76
2021/10/06 07:16:46;;;;;;;5.53;1.60;;;;;;;6.35;100.00;94020.84;5073585;28;20649;-77
2021/10/06 07:19:12;;;;;;;4.37;1.80;;;;;;;6.46;100.00;94016.09;5073441;28;20608;-77
2021/10/06 07:21:44;;;;;;;4.77;1.90;;;;;;;6.60;100.00;94017.13;5073340;28;20256;-76
2021/10/06 07:24:12;;;;;;;5.93;1.80;;;;;;;6.82;100.00;94027.72;5073293;28;20628;-76
2021/10/06 07:26:38;;;;;;;5.07;1.40;;;;;;;6.95;100.00;94025.38;5073418;28;20198;-76
2021/10/06 07:29:05;;;;;;;11.90;1.63;;;;;;;6.88;100.00;94029.66;5073296;28;20203;-77
2021/10/06 07:31:31;;;;;;;3.57;1.70;;;;;;;6.87;100.00;94025.44;5073320;28;20234;-76
2021/10/06 07:33:58;;;;;;;7.00;1.73;;;;;;;6.74;100.00;94025.97;5073082;28;20710;-76
2021/10/06 07:36:25;;;;;;;5.57;1.53;;;;;;;6.81;100.00;94033.88;5073196;28;20653;-75
2021/10/06 07:38:53;;;;;;;8.25;2.10;;;;;;;6.93;100.00;94035.13;5072321;28;20435;-76
2021/10/06 07:41:20;;;;;;;3.10;1.10;;;;;;;7.20;100.00;94039.00;5072976;28;20332;-76
2021/10/06 07:43:47;;;;;;;4.20;1.37;;;;;;;7.44;100.00;94046.78;5073179;28;20198;-76
2021/10/06 07:46:14;;;;;;;6.20;1.10;;;;;;;7.29;100.00;94050.13;5073066;28;20542;-76
2021/10/06 07:48:40;;;;;;;6.80;1.47;;;;;;;7.51;100.00;94051.13;5073016;28;20207;-76
2021/10/06 07:51:07;;;;;;;6.20;1.40;;;;;;;7.86;100.00;94054.09;5072516;28;20267;-77
2021/10/06 07:53:33;;;;;;;2.77;1.20;;;;;;;8.15;100.00;94062.91;5073082;28;20252;-77
2021/10/06 07:56:01;;;;;;;5.60;2.00;;;;;;;8.34;100.00;94066.75;5072947;28;20210;-77
2021/10/06 07:58:27;;;;;;;9.50;1.10;;;;;;;8.65;100.00;94068.41;5072904;28;20206;-77
2021/10/06 08:00:54;;;;;;;3.90;1.10;;;;;;;8.89;100.00;94065.50;5072840;28;20625;-77
2021/10/06 08:03:20;;;;;;;8.10;1.00;;;;;;;8.97;100.00;94061.16;5072982;28;20214;-77
2021/10/06 08:05:47;;;;;;;8.03;1.27;;;;;;;8.99;100.00;94053.97;5072798;28;20203;-77
2021/10/06 08:08:13;;;;;;;3.20;1.30;;;;;;;9.00;100.00;94066.00;5072911;28;20286;-78
2021/10/06 08:10:40;;;;;;;4.50;0.83;;;;;;;9.16;100.00;94063.19;5072896;28;20315;-78
2021/10/06 08:13:08;;;;;;;1.57;0.93;;;;;;;9.29;100.00;94065.09;5072802;28;20203;-76
2021/10/06 08:15:36;;;;;;;3.90;0.93;;;;;;;9.37;100.00;94059.75;5072662;28;20340;-77
2021/10/06 08:18:02;;;;;;;5.30;1.00;;;;;;;9.32;100.00;94069.16;5072168;28;20194;-78
2021/10/06 08:20:32;;;;;;;4.17;0.90;;;;;;;9.59;100.00;94068.41;5072827;28;20211;-78
2021/10/06 08:22:59;;;;;;;2.63;0.87;;;;;;;9.82;100.00;94072.59;5072501;28;20728;-77
2021/10/06 08:25:26;;;;;;;3.80;0.90;;;;;;;9.68;100.00;94076.09;5074353;28;20557;-77
2021/10/06 08:27:53;;;;;;;2.37;0.80;;;;;;;9.68;100.00;94076.09;5076607;28;20210;-76
2021/10/06 08:30:21;;;;;;;2.93;0.90;;;;;;;10.13;100.00;94076.66;5076406;28;20194;-76
2021/10/06 08:32:48;;;;;;;3.30;1.00;;;;;;;10.32;100.00;94083.81;5076705;28;20202;-77
2021/10/06 08:35:14;;;;;;;3.63;0.90;;;;;;;10.06;100.00;94081.00;5076678;28;20203;-76
2021/10/06 08:37:40;;;;;;;3.53;1.00;;;;;;;10.28;100.00;94081.78;5060966;28;20206;-78
2021/10/06 08:40:09;;;;;;;1.83;0.90;;;;;;;10.36;100.00;94084.28;5056321;28;20199;-77
2021/10/06 08:42:36;;;;;;;5.03;0.90;;;;;;;10.10;100.00;94079.66;5056096;28;20693;-76
2021/10/06 08:45:06;;;;;;;4.13;0.90;;;;;;;9.56;100.00;94097.44;5056403;28;20233;-76
2021/10/06 08:47:35;;;;;;;3.63;0.87;;;;;;;9.38;100.00;94102.28;5056315;28;20207;-76
2021/10/06 08:50:02;;;;;;;9.57;1.00;;;;;;;9.53;100.00;94100.44;5056190;28;20200;-76
2021/10/06 08:52:28;;;;;;;4.47;0.70;;;;;;;9.60;100.00;94093.47;5056120;28;20231;-77
2021/10/06 08:54:55;;;;;;;10.53;1.00;;;;;;;9.84;100.00;94096.69;5072807;28;20260;-79
2021/10/06 08:57:21;;;;;;;1.63;0.60;;;;;;;10.45;100.00;94095.38;5075909;28;20203;-76
2021/10/06 08:59:48;;;;;;;3.43;0.80;;;;;;;10.87;100.00;94096.19;5076107;28;20199;-76
2021/10/06 09:02:15;;;;;;;3.47;0.70;;;;;;;10.78;100.00;94102.59;5075768;28;20603;-76
2021/10/06 09:04:43;;;;;;;9.87;0.90;;;;;;;10.34;100.00;94096.69;5075976;28;20194;-76
2021/10/06 09:07:10;;;;;;;2.77;0.83;;;;;;;10.22;100.00;94095.56;5075898;28;20569;-76
2021/10/06 09:09:37;;;;;;;2.40;0.60;;;;;;;10.11;100.00;94099.53;5075728;28;20202;-77
2021/10/06 09:12:09;;;;;;;3.57;1.20;;;;;;;10.08;100.00;94110.34;5075576;28;20284;-76
2021/10/06 09:14:41;;;;;;;2.33;0.80;;;;;;;9.84;100.00;94117.53;5075791;28;20229;-76
2021/10/06 09:17:13;;;;;;;6.17;1.27;;;;;;;9.42;100.00;94122.56;5075744;28;20207;-76
2021/10/06 09:19:53;;;;;;;8.20;0.90;;;;;;;9.48;100.00;94123.63;5075532;28;20565;-76
2021/10/06 09:22:26;;;;;;;6.57;1.30;;;;;;;9.78;100.00;94123.53;5075223;28;20720;-77
2021/10/06 09:24:57;;;;;;;7.73;1.60;;;;;;;9.77;100.00;94129.72;5075733;28;20206;-77
2021/10/06 09:27:26;;;;;;;7.50;1.17;;;;;;;9.89;100.00;94133.47;5075605;28;20195;-76
2021/10/06 09:29:54;;;;;;;3.83;1.10;;;;;;;10.13;100.00;94128.84;5075410;28;20206;-77
2021/10/06 09:32:27;;;;;;;7.27;1.20;;;;;;;10.41;100.00;94128.06;5075289;28;20236;-76
2021/10/06 09:35:12;;;;;;;3.40;1.10;;;;;;;10.71;100.00;94139.91;5075199;28;20198;-77
2021/10/06 09:37:40;;;;;;;7.77;1.57;;;;;;;10.62;100.00;94130.59;5073929;28;20198;-77
2021/10/06 09:40:09;;;;;;;11.63;1.73;;;;;;;10.63;100.00;94127.00;5075098;28;20561;-77
2021/10/06 09:42:42;;;;;;;9.15;1.35;;;;;;;10.89;100.00;94136.78;5075224;28;20214;-77
2021/10/06 09:45:08;;;;;;;5.20;1.43;;;;;;;10.55;100.00;94134.97;5074952;28;20281;-77
2021/10/06 09:47:37;;;;;;;3.65;1.40;;;;;;;10.90;100.00;94142.81;5075276;28;20286;-76
2021/10/06 09:50:04;;;;;;;3.77;1.57;;;;;;;11.13;100.00;94141.72;5074826;28;20256;-77
2021/10/06 09:52:33;;;;;;;5.33;1.77;;;;;;;11.20;98.76;94138.13;5075027;28;20288;-77
2021/10/06 09:55:02;;;;;;;6.03;1.13;;;;;;;11.52;95.71;94140.25;5074836;28;20195;-77
2021/10/06 09:57:30;;;;;;;4.75;1.65;;;;;;;11.49;99.67;94136.22;5074923;28;20255;-79
2021/10/06 09:59:58;;;;;;;5.32;1.48;;;;;;;12.03;95.80;94143.19;5075011;28;20292;-78
2021/10/06 10:02:26;;;;;;;2.35;1.23;;;;;;;11.96;90.45;94139.78;5074923;28;20198;-78
2021/10/06 10:04:54;;;;;;;9.13;1.30;;;;;;;11.45;100.00;94135.81;5074923;28;20657;-77
2021/10/06 10:07:21;;;;;;;5.10;1.60;;;;;;;11.17;91.81;94140.31;5074834;28;20202;-76
2021/10/06 10:09:49;;;;;;;4.13;1.40;;;;;;;10.72;93.35;94146.75;5074590;28;20213;-77
2021/10/06 10:12:17;;;;;;;4.90;1.50;;;;;;;10.83;96.30;94147.22;5074464;28;20230;-76
2021/10/06 10:14:44;;;;;;;4.40;1.60;;;;;;;11.07;97.93;94145.91;5073310;28;20442;-76
2021/10/06 10:17:10;;;;;;;4.33;1.30;;;;;;;10.91;96.14;94152.28;5074595;28;20194;-77
2021/10/06 10:19:38;;;;;;;5.67;1.60;;;;;;;10.82;91.81;94150.81;5074516;28;20618;-77
2021/10/06 10:22:06;;;;;;;3.40;1.10;;;;;;;11.03;100.00;94157.75;5074267;28;20286;-77
2021/10/06 10:24:43;;;;;;;3.37;1.00;;;;;;;10.68;95.22;94166.41;5074318;28;20668;-76
2021/10/06 10:27:13;;;;;;;4.23;1.00;;;;;;;10.86;97.13;94158.06;5074344;28;20198;-77
2021/10/06 10:29:45;;;;;;;4.93;1.13;;;;;;;10.86;97.48;94167.72;5074329;28;20289;-77
2021/10/06 10:32:14;;;;;;;4.53;1.13;;;;;;;10.78;100.00;94175.72;5074147;28;20627;-77
2021/10/06 10:35:06;;;;;;;4.27;1.00;;;;;;;10.91;96.99;94175.78;5074139;28;20211;-76
2021/10/06 10:38:13;;;;;;;3.45;1.00;;;;;;;11.02;99.20;94177.84;5074004;28;20244;-77
2021/10/06 10:40:47;;;;;;;9.10;0.90;;;;;;;11.30;96.57;94169.13;5073993;28;20594;-77
2021/10/06 10:43:17;;;;;;;4.20;0.93;;;;;;;11.42;94.86;94172.81;5073766;28;20209;-78
2021/10/06 10:45:52;;;;;;;3.42;1.00;;;;;;;11.86;93.28;94173.34;5073812;28;20206;-77
2021/10/06 10:48:22;;;;;;;4.38;1.25;;;;;;;12.07;93.64;94175.00;5073077;28;20198;-77
2021/10/06 10:51:09;;;;;;;1.88;1.08;;;;;;;11.95;92.28;94177.41;5073833;28;20203;-78
2021/10/06 10:54:02;;;;;;;3.00;1.20;;;;;;;11.82;91.22;94172.94;5073798;28;20207;-78
2021/10/06 10:56:49;;;;;;;3.65;1.10;;;;;;;11.43;95.28;94179.63;5073870;28;20199;-78
2021/10/06 10:59:19;;;;;;;7.18;1.42;;;;;;;11.09;96.17;94180.47;5073750;28;20203;-78
2021/10/06 11:01:52;;;;;;;5.03;1.20;;;;;;;10.63;98.10;94179.22;5073300;28;20445;-77
2021/10/06 11:04:21;;;;;;;3.13;1.53;;;;;;;10.49;100.00;94183.56;5073591;28;20203;-78
2021/10/06 11:06:50;;;;;;;3.53;1.20;;;;;;;10.28;100.00;94179.13;5073656;28;20213;-78
2021/10/06 11:09:40;;;;;;;5.53;1.17;;;;;;;9.91;100.00;94194.06;5073562;28;20203;-78
2021/10/06 11:12:38;;;;;;;5.70;1.20;;;;;;;9.58;100.00;94191.91;5073378;28;20237;-78
2021/10/06 11:15:34;;;;;;;2.97;0.70;;;;;;;9.58;100.00;94191.91;5073499;28;20599;-78
2021/10/06 11:18:19;;;;;;;5.83;0.90;;;;;;;10.15;100.00;94181.63;5073294;28;20286;-79
2021/10/06 11:20:51;;;;;;;7.70;1.00;;;;;;;10.60;100.00;94179.59;5073178;28;20661;-78
2021/10/06 11:23:45;;;;;;;2.40;0.70;;;;;;;10.90;100.00;94174.97;5073190;28;20481;-78
2021/10/06 11:26:18;;;;;;;3.87;0.83;;;;;;;11.00;100.00;94172.00;5073326;28;20236;-78
2021/10/06 11:28:48;;;;;;;3.77;0.97;;;;;;;10.73;100.00;94178.88;5073353;28;20612;-78
2021/10/06 11:31:20;;;;;;;4.50;1.27;;;;;;;10.22;100.00;94202.56;5073020;28;20198;-77
2021/10/06 11:33:46;;;;;;;2.73;0.70;;;;;;;9.49;100.00;94192.19;5073420;28;20256;-78
2021/10/06 11:36:16;;;;;;;2.40;0.70;;;;;;;9.48;100.00;94180.97;5073279;28;20604;-78